Terminal Aerodrome Forecast
Issued by NWS

Home | Current Version | Previous Version | Text Only | Print | Product List | Glossary On
Versions: 1 2 3 4 5 6 7 8 9 10 11 12 13 14 15 16 17 18 19 20
000
FTUS45 KCYS 201120
TAFRWL
TAF
KRWL 201120Z 2012/2112 25010KT P6SM BKN100
     FM201600 23023G35KT P6SM SCT150
     FM210200 24009KT P6SM SCT100 BKN150=

USA.gov is the U.S. government's official web portal to all federal, state and local government web resources and services.